Time;durP1;ratioP1;P1;durP2;ratioP2;P2;SDS_P1;SDS_P2;PMS_P1;PMS_P2;Temp;Humidity;BMP_temperature;BMP_pressure;BME280_temperature;BME280_humidity;BME280_pressure;Samples;Min_cycle;Max_cycle;Signal;HPM_P1;HPM_P2
2023/01/08 00:00:51;;;;;;;;;;;;;;;-144.99;77.30;52541.84;5082308;28;20023;-73
2023/01/08 00:03:18;;;;;;;;;;;;;;;-144.99;76.91;52541.84;5079457;28;20041;-73
2023/01/08 00:05:44;;;;;;;;;;;;;;;-144.99;76.88;52550.00;5066607;28;20029;-73
2023/01/08 00:08:11;;;;;;;;;;;;;;;-144.99;76.66;52521.47;5072741;28;19984;-75
2023/01/08 00:10:38;;;;;;;;;;;;;;;-144.99;76.71;52574.47;5090686;28;20012;-75
2023/01/08 00:13:05;;;;;;;;;;;;;;;-144.99;76.57;52590.78;5067010;28;20073;-74
2023/01/08 00:15:33;;;;;;;;;;;;;;;-144.99;76.93;52578.53;5065430;28;20065;-72
2023/01/08 00:17:59;;;;;;;;;;;;;;;-144.99;76.62;52550.00;5068508;28;20459;-72
2023/01/08 00:20:26;;;;;;;;;;;;;;;-144.99;76.41;52578.53;5068123;28;20442;-73
2023/01/08 00:22:53;;;;;;;;;;;;;;;-144.99;76.14;52572.44;5066543;28;19951;-73
2023/01/08 00:25:19;;;;;;;;;;;;;;;-144.99;76.29;52570.38;5065728;28;20457;-73
2023/01/08 00:27:46;;;;;;;;;;;;;;;-144.99;76.24;52586.69;5063971;28;20488;-72
2023/01/08 00:30:13;;;;;;;;;;;;;;;-144.99;76.30;52545.94;5067177;28;19993;-72
2023/01/08 00:32:41;;;;;;;;;;;;;;;-144.99;75.55;52550.00;5068912;28;19958;-73
2023/01/08 00:35:08;;;;;;;;;;;;;;;-144.99;76.43;52558.16;5068973;28;20068;-75
2023/01/08 00:37:34;;;;;;;;;;;;;;;-144.99;76.36;52509.25;5070433;28;20383;-73
2023/01/08 00:40:01;;;;;;;;;;;;;;;-144.99;75.99;52574.47;5069472;28;20361;-72
2023/01/08 00:42:27;;;;;;;;;;;;;;;-144.99;75.74;52537.78;5068972;28;19950;-76
2023/01/08 00:44:54;;;;;;;;;;;;;;;-144.99;75.85;52552.03;5072247;28;19988;-72
2023/01/08 00:47:20;;;;;;;;;;;;;;;-144.99;75.86;52578.53;5076106;28;19969;-75
2023/01/08 00:49:48;;;;;;;;;;;;;;;-144.99;75.95;52531.66;5094120;28;19964;-77
2023/01/08 00:52:14;;;;;;;;;;;;;;;-144.99;75.79;52545.94;5084944;28;19963;-74
2023/01/08 00:54:41;;;;;;;;;;;;;;;-144.99;75.88;52552.03;5071235;28;20052;-75
2023/01/08 00:57:07;;;;;;;;;;;;;;;-144.99;76.13;52558.16;5069542;28;19985;-74
2023/01/08 00:59:34;;;;;;;;;;;;;;;-144.99;76.20;52537.78;5073975;28;20067;-74
2023/01/08 01:02:00;;;;;;;;;;;;;;;-144.99;75.99;52541.84;5088848;28;19969;-75
2023/01/08 01:04:27;;;;;;;;;;;;;;;-144.99;76.40;52541.84;5081645;28;20074;-75
2023/01/08 01:06:55;;;;;;;;;;;;;;;-144.99;76.50;52501.09;5063713;28;19943;-75
2023/01/08 01:09:21;;;;;;;;;;;;;;;-144.99;76.59;52578.53;5068507;28;19946;-74
2023/01/08 01:11:47;;;;;;;;;;;;;;;-144.99;76.57;52570.38;5068594;28;20003;-75
2023/01/08 01:14:14;;;;;;;;;;;;;;;-144.99;76.68;52576.50;5066681;28;20000;-76
2023/01/08 01:16:41;;;;;;;;;;;;;;;-144.99;76.93;52545.94;5069155;28;20091;-76
2023/01/08 01:19:08;;;;;;;;;;;;;;;-144.99;77.25;52547.97;5074802;28;19959;-74
2023/01/08 01:21:34;;;;;;;;;;;;;;;-144.99;77.32;52545.94;5089174;28;20307;-75
2023/01/08 01:24:04;;;;;;;;;;;;;;;-144.99;77.32;52566.31;5072662;28;20708;-73
2023/01/08 01:26:31;;;;;;;;;;;;;;;-144.99;77.25;52576.50;5073871;28;19975;-74
2023/01/08 01:28:58;;;;;;;;;;;;;;;-144.99;76.95;52562.25;5085873;28;19936;-72
2023/01/08 01:31:26;;;;;;;;;;;;;;;-144.99;77.39;52543.91;5068331;28;20023;-73
2023/01/08 01:33:52;;;;;;;;;;;;;;;-144.99;77.11;52554.09;5065593;28;20454;-72
2023/01/08 01:36:21;;;;;;;;;;;;;;;-144.99;76.93;52574.47;5068142;28;20044;-75
2023/01/08 01:38:49;;;;;;;;;;;;;;;-144.99;76.99;52578.53;5055271;28;19949;-74
2023/01/08 01:41:23;;;;;;;;;;;;;;;-144.99;77.23;52558.16;5081868;28;20309;-75
2023/01/08 01:43:50;;;;;;;;;;;;;;;-144.99;77.02;52541.84;5078368;28;20410;-76
2023/01/08 01:46:19;;;;;;;;;;;;;;;-144.99;77.64;52566.31;5072332;28;19984;-74
2023/01/08 01:48:48;;;;;;;;;;;;;;;-144.99;77.71;52543.91;5067636;28;19992;-73
2023/01/08 01:51:14;;;;;;;;;;;;;;;-144.99;77.85;52554.09;5067502;28;20462;-75
2023/01/08 01:53:41;;;;;;;;;;;;;;;-144.99;77.92;52580.59;5066796;28;20047;-75
2023/01/08 01:56:08;;;;;;;;;;;;;;;-144.99;77.88;52537.78;5066445;28;19963;-76
2023/01/08 01:58:36;;;;;;;;;;;;;;;-144.99;78.24;52541.84;5067803;28;19952;-75
2023/01/08 02:01:04;;;;;;;;;;;;;;;-144.99;78.08;52582.63;5084967;28;20046;-75
2023/01/08 02:03:33;;;;;;;;;;;;;;;-144.99;78.76;52537.78;5088003;28;20006;-74
2023/01/08 02:06:03;;;;;;;;;;;;;;;-144.99;78.62;52558.16;5083688;28;19946;-75
2023/01/08 02:08:36;;;;;;;;;;;;;;;-144.99;78.56;52572.44;5079845;28;20112;-76
2023/01/08 02:11:07;;;;;;;;;;;;;;;-144.99;79.21;52550.00;5053852;28;20025;-77
2023/01/08 02:13:36;;;;;;;;;;;;;;;-144.99;79.08;52554.09;5064474;28;19977;-72
2023/01/08 02:16:09;;;;;;;;;;;;;;;-144.99;79.23;52554.09;5066775;28;20054;-72
2023/01/08 02:18:38;;;;;;;;;;;;;;;-144.99;79.21;52558.16;5067419;28;19990;-71
2023/01/08 02:21:07;;;;;;;;;;;;;;;-144.99;79.78;52519.44;5067383;28;19973;-73
2023/01/08 02:23:37;;;;;;;;;;;;;;;-144.99;79.93;52578.53;5065282;28;20003;-72
2023/01/08 02:26:07;;;;;;;;;;;;;;;-144.99;79.67;52570.38;5068250;28;19953;-73
2023/01/08 02:28:36;;;;;;;;;;;;;;;-144.99;79.56;52570.38;5065742;28;19940;-73
2023/01/08 02:31:03;;;;;;;;;;;;;;;-144.99;79.97;52562.25;5066945;28;20009;-72
2023/01/08 02:33:31;;;;;;;;;;;;;;;-144.99;80.01;52541.84;5065129;28;19975;-72
2023/01/08 02:36:15;;;;;;;;;;;;;;;-144.99;80.11;52562.25;5066547;28;20062;-73
2023/01/08 02:38:46;;;;;;;;;;;;;;;-144.99;80.56;52558.16;5059571;28;19943;-73
2023/01/08 02:41:15;;;;;;;;;;;;;;;-144.99;80.32;52525.56;5066928;28;20051;-73
2023/01/08 02:43:45;;;;;;;;;;;;;;;-144.99;80.35;52554.09;5070521;28;19926;-75
2023/01/08 02:46:14;;;;;;;;;;;;;;;-144.99;80.98;52525.56;5086403;28;19947;-73
2023/01/08 02:48:44;;;;;;;;;;;;;;;-144.99;81.05;52558.16;5066609;28;20139;-74
2023/01/08 02:51:13;;;;;;;;;;;;;;;-144.99;81.84;52550.00;5066939;28;20508;-75
2023/01/08 02:53:42;;;;;;;;;;;;;;;-144.99;81.29;52578.53;5066246;28;20035;-76
2023/01/08 02:56:11;;;;;;;;;;;;;;;-144.99;81.75;52607.09;5067089;28;20040;-73
2023/01/08 02:58:40;;;;;;;;;;;;;;;-144.99;81.72;52533.69;5068381;28;19972;-75
2023/01/08 03:01:08;;;;;;;;;;;;;;;-144.99;82.46;52533.69;4719552;28;9999615;-75
2023/01/08 03:03:35;;;;;;;;;;;;;;;-144.99;81.64;52550.00;5068528;28;19946;-73
2023/01/08 03:06:03;;;;;;;;;;;;;;;-144.99;82.35;52533.69;5073900;28;20059;-75
2023/01/08 03:08:31;;;;;;;;;;;;;;;-144.99;82.18;52541.84;5088334;28;20058;-75
2023/01/08 03:11:06;;;;;;;;;;;;;;;-144.99;82.42;52570.38;5079631;28;19962;-72
2023/01/08 03:13:37;;;;;;;;;;;;;;;-144.99;82.87;52574.47;5064518;28;19988;-73
2023/01/08 03:16:08;;;;;;;;;;;;;;;-144.99;83.24;52562.25;5069294;28;20060;-74
2023/01/08 03:18:37;;;;;;;;;;;;;;;-144.99;84.26;52570.38;5069460;28;20037;-73
2023/01/08 03:21:06;;;;;;;;;;;;;;;-144.99;84.24;52554.09;5067786;28;20675;-74
2023/01/08 03:23:34;;;;;;;;;;;;;;;-144.99;84.12;52566.31;5084713;28;19947;-77
2023/01/08 03:26:01;;;;;;;;;;;;;;;-144.99;83.64;52574.47;5088747;28;20376;-73
2023/01/08 03:28:31;;;;;;;;;;;;;;;-144.99;83.78;52537.78;5069084;28;19939;-73
2023/01/08 03:30:59;;;;;;;;;;;;;;;-144.99;83.46;52550.00;5068075;28;20158;-72
2023/01/08 03:33:27;;;;;;;;;;;;;;;-144.99;83.89;52545.94;5072997;28;19984;-74
2023/01/08 03:35:55;;;;;;;;;;;;;;;-144.99;83.83;52521.47;5070714;28;19991;-74
2023/01/08 03:38:24;;;;;;;;;;;;;;;-144.99;83.38;52568.34;5069080;28;19950;-72
2023/01/08 03:40:53;;;;;;;;;;;;;;;-144.99;83.39;52560.19;5068193;28;20391;-74
2023/01/08 03:43:19;;;;;;;;;;;;;;;-144.99;84.21;52562.25;5071298;28;19982;-74
2023/01/08 03:45:49;;;;;;;;;;;;;;;-144.99;84.22;52562.25;5071514;28;19942;-73
2023/01/08 03:48:16;;;;;;;;;;;;;;;-144.99;84.10;52552.03;5090982;28;19994;-75
2023/01/08 03:50:44;;;;;;;;;;;;;;;-144.99;84.33;52586.69;5078203;28;20043;-72
2023/01/08 03:53:10;;;;;;;;;;;;;;;-144.99;83.78;52521.47;5072483;28;20457;-72
2023/01/08 03:55:37;;;;;;;;;;;;;;;-144.99;84.10;52550.00;5072385;28;19974;-73
2023/01/08 03:58:03;;;;;;;;;;;;;;;-144.99;83.32;52547.97;5072768;28;19949;-72
2023/01/08 04:00:30;;;;;;;;;;;;;;;-144.99;83.37;52590.78;5075663;28;20007;-72
2023/01/08 04:02:56;;;;;;;;;;;;;;;-144.99;83.24;52545.94;5077330;28;19938;-73
2023/01/08 04:05:22;;;;;;;;;;;;;;;-144.99;83.33;52525.56;5075599;28;20091;-72
2023/01/08 04:07:50;;;;;;;;;;;;;;;-144.99;83.01;52570.38;5072135;28;20004;-71
2023/01/08 04:10:17;;;;;;;;;;;;;;;-144.99;83.02;52517.41;5070694;28;20008;-73
2023/01/08 04:12:43;;;;;;;;;;;;;;;-144.99;83.17;52598.94;5071535;28;19944;-73
2023/01/08 04:15:10;;;;;;;;;;;;;;;-144.99;82.92;52547.97;5071422;28;19985;-73
2023/01/08 04:17:37;;;;;;;;;;;;;;;-144.99;83.47;52558.16;5079768;28;20072;-72
2023/01/08 04:20:04;;;;;;;;;;;;;;;-144.99;83.61;52517.41;5081526;28;20023;-73
2023/01/08 04:22:30;;;;;;;;;;;;;;;-144.99;83.43;52539.81;5074987;28;20005;-73
2023/01/08 04:24:58;;;;;;;;;;;;;;;-144.99;83.34;52582.63;5072325;28;19977;-73
2023/01/08 04:27:24;;;;;;;;;;;;;;;-144.99;82.78;52541.84;5070935;28;19940;-73
2023/01/08 04:29:51;;;;;;;;;;;;;;;-144.99;82.98;52539.81;5066936;28;20000;-74
2023/01/08 04:32:18;;;;;;;;;;;;;;;-144.99;83.41;52521.47;5070651;28;19945;-75
2023/01/08 04:34:45;;;;;;;;;;;;;;;-144.99;83.08;52556.13;5073932;28;20492;-73
2023/01/08 04:37:11;;;;;;;;;;;;;;;-144.99;83.41;52529.63;5093147;28;20011;-75
2023/01/08 04:39:38;;;;;;;;;;;;;;;-144.99;83.23;52574.47;5092955;28;20056;-74
2023/01/08 04:42:06;;;;;;;;;;;;;;;-144.99;83.21;52568.34;5096600;28;19995;-75
2023/01/08 04:44:32;;;;;;;;;;;;;;;-144.99;83.38;52527.59;5087741;28;20367;-74
2023/01/08 04:46:58;;;;;;;;;;;;;;;-144.99;83.52;52513.31;5078464;28;20087;-73
2023/01/08 04:49:25;;;;;;;;;;;;;;;-144.99;83.85;52545.94;5092493;28;19967;-74
2023/01/08 04:51:51;;;;;;;;;;;;;;;-144.99;83.39;52556.13;5080139;28;19953;-72
2023/01/08 04:54:18;;;;;;;;;;;;;;;-144.99;83.75;52570.38;5070812;28;20009;-72
2023/01/08 04:56:44;;;;;;;;;;;;;;;-144.99;83.66;52566.31;5071241;28;20038;-73
2023/01/08 04:59:12;;;;;;;;;;;;;;;-144.99;83.74;52554.09;5081949;28;19998;-72
2023/01/08 05:01:39;;;;;;;;;;;;;;;-144.99;84.16;52558.16;5069118;28;20432;-71
2023/01/08 05:04:05;;;;;;;;;;;;;;;-144.99;84.17;52574.47;5078785;28;19998;-71
2023/01/08 05:06:32;;;;;;;;;;;;;;;-144.99;84.56;52550.00;5071186;28;20378;-70
2023/01/08 05:08:59;;;;;;;;;;;;;;;-144.99;84.75;52527.59;5080542;28;19997;-73
2023/01/08 05:11:26;;;;;;;;;;;;;;;-144.99;85.17;52537.78;5072199;28;19993;-71
2023/01/08 05:13:54;;;;;;;;;;;;;;;-144.99;84.98;52550.00;5070238;28;19944;-72
2023/01/08 05:16:22;;;;;;;;;;;;;;;-144.99;84.73;52558.16;5070764;28;20016;-73
2023/01/08 05:18:48;;;;;;;;;;;;;;;-144.99;84.64;52576.50;5070971;28;20453;-72
2023/01/08 05:21:15;;;;;;;;;;;;;;;-144.99;84.66;52529.63;5076192;28;19999;-71
2023/01/08 05:23:44;;;;;;;;;;;;;;;-144.99;84.93;52515.34;5071038;28;19944;-73
2023/01/08 05:26:11;;;;;;;;;;;;;;;-144.99;85.10;52533.69;5070259;28;19948;-71
2023/01/08 05:28:37;;;;;;;;;;;;;;;-144.99;84.71;52570.38;5070021;28;20132;-72
2023/01/08 05:31:04;;;;;;;;;;;;;;;-144.99;85.23;52578.53;5067453;28;20051;-72
2023/01/08 05:33:32;;;;;;;;;;;;;;;-144.99;85.77;52554.09;5069818;28;20023;-74
2023/01/08 05:35:59;;;;;;;;;;;;;;;-144.99;86.04;52578.53;5070106;28;20064;-72
2023/01/08 05:38:25;;;;;;;;;;;;;;;-144.99;86.83;52533.69;5070338;28;19998;-73
2023/01/08 05:40:52;;;;;;;;;;;;;;;-144.99;87.21;52578.53;5069810;28;20375;-74
2023/01/08 05:43:18;;;;;;;;;;;;;;;-144.99;87.55;52607.09;5068284;28;19973;-73
2023/01/08 05:45:45;;;;;;;;;;;;;;;-144.99;87.79;52582.63;5059160;28;19995;-73
2023/01/08 05:48:11;;;;;;;;;;;;;;;-144.99;87.30;52525.56;5087053;28;20454;-72
2023/01/08 05:50:39;;;;;;;;;;;;;;;-144.99;87.04;52560.19;5091514;28;19966;-73
2023/01/08 05:53:06;;;;;;;;;;;;;;;-144.99;87.35;52564.28;5076263;28;20083;-74
2023/01/08 05:55:32;;;;;;;;;;;;;;;-144.99;86.90;52562.25;5070083;28;19943;-74
2023/01/08 05:58:00;;;;;;;;;;;;;;;-144.99;87.46;52517.41;5091069;28;20005;-75
2023/01/08 06:00:27;;;;;;;;;;;;;;;-144.99;87.92;52562.25;5098757;28;19970;-75
2023/01/08 06:02:53;;;;;;;;;;;;;;;-144.99;87.57;52566.31;5074565;28;19937;-74
2023/01/08 06:05:20;;;;;;;;;;;;;;;-144.99;87.39;52582.63;5069626;28;19988;-76
2023/01/08 06:07:47;;;;;;;;;;;;;;;-144.99;88.25;52550.00;5069940;28;20431;-75
2023/01/08 06:10:14;;;;;;;;;;;;;;;-144.99;88.32;52564.28;5067253;28;20006;-74
2023/01/08 06:12:40;;;;;;;;;;;;;;;-144.99;88.32;52570.38;5076550;28;20423;-74
2023/01/08 06:15:07;;;;;;;;;;;;;;;-144.99;88.70;52515.34;5069988;28;20058;-73
2023/01/08 06:17:34;;;;;;;;;;;;;;;-144.99;88.32;52554.09;5077264;28;20006;-74
2023/01/08 06:20:01;;;;;;;;;;;;;;;-144.99;88.21;52558.16;5063135;28;20002;-74
2023/01/08 06:22:27;;;;;;;;;;;;;;;-144.99;88.42;52558.16;5069029;28;19982;-74
2023/01/08 06:24:55;;;;;;;;;;;;;;;-144.99;88.33;52550.00;5069345;28;19943;-74
2023/01/08 06:27:21;;;;;;;;;;;;;;;-144.99;88.78;52545.94;5068549;28;19993;-73
2023/01/08 06:29:48;;;;;;;;;;;;;;;-144.99;88.07;52519.44;5061573;28;19995;-73
2023/01/08 06:32:14;;;;;;;;;;;;;;;-144.99;88.93;52562.25;5070041;28;19988;-73
2023/01/08 06:34:41;;;;;;;;;;;;;;;-144.99;89.16;52547.97;5069610;28;19987;-72
2023/01/08 06:37:07;;;;;;;;;;;;;;;-144.99;89.11;52550.00;5069469;28;20051;-72
2023/01/08 06:39:34;;;;;;;;;;;;;;;-144.99;88.63;52545.94;5067746;28;19985;-71
2023/01/08 06:42:01;;;;;;;;;;;;;;;-144.99;88.35;52558.16;5057079;28;20010;-72
2023/01/08 06:44:28;;;;;;;;;;;;;;;-144.99;89.02;52511.28;5069344;28;20004;-71
2023/01/08 06:46:54;;;;;;;;;;;;;;;-144.99;88.59;52568.34;5058884;28;19994;-72
2023/01/08 06:49:21;;;;;;;;;;;;;;;-144.99;88.03;52533.69;5069102;28;19945;-71
2023/01/08 06:51:48;;;;;;;;;;;;;;;-144.99;87.53;52545.94;5068597;28;19957;-72
2023/01/08 06:54:14;;;;;;;;;;;;;;;-144.99;88.56;52505.16;5069068;28;19945;-72
2023/01/08 06:56:41;;;;;;;;;;;;;;;-144.99;88.07;52529.63;5069857;28;20720;-73
2023/01/08 06:59:09;;;;;;;;;;;;;;;-144.99;87.63;52574.47;5068414;28;19977;-74
2023/01/08 07:01:35;;;;;;;;;;;;;;;-144.99;87.95;52537.78;5075831;28;19964;-74
2023/01/08 07:04:02;;;;;;;;;;;;;;;-144.99;88.38;52529.63;5092964;28;19933;-75
2023/01/08 07:06:28;;;;;;;;;;;;;;;-144.99;88.39;52545.94;5093593;28;19938;-74
2023/01/08 07:08:54;;;;;;;;;;;;;;;-144.99;88.72;52558.16;5085770;28;19949;-74
2023/01/08 07:11:21;;;;;;;;;;;;;;;-144.99;88.30;52566.31;5078119;28;19965;-73
2023/01/08 07:13:47;;;;;;;;;;;;;;;-144.99;88.67;52558.16;5085397;28;19937;-73
2023/01/08 07:16:15;;;;;;;;;;;;;;;-144.99;88.97;52566.31;5081394;28;19953;-72
2023/01/08 07:18:42;;;;;;;;;;;;;;;-144.99;88.80;52541.84;5092042;28;19964;-73
2023/01/08 07:21:08;;;;;;;;;;;;;;;-144.99;88.43;52537.78;5097026;28;19975;-72
2023/01/08 07:23:35;;;;;;;;;;;;;;;-144.99;89.07;52541.84;5097094;28;19930;-74
2023/01/08 07:26:02;;;;;;;;;;;;;;;-144.99;89.18;52582.63;5098350;28;19950;-73
2023/01/08 07:28:29;;;;;;;;;;;;;;;-144.99;88.51;52550.00;5091758;28;19926;-71
2023/01/08 07:30:55;;;;;;;;;;;;;;;-144.99;89.05;52545.94;5098401;28;19941;-75
2023/01/08 07:33:23;;;;;;;;;;;;;;;-144.99;88.70;52574.47;5097920;28;19924;-73
2023/01/08 07:35:51;;;;;;;;;;;;;;;-144.99;88.22;52570.38;5087141;28;19941;-74
2023/01/08 07:38:18;;;;;;;;;;;;;;;-144.99;88.50;52554.09;5083468;28;20344;-73
2023/01/08 07:40:45;;;;;;;;;;;;;;;-144.99;88.30;52537.78;5082592;28;19953;-73
2023/01/08 07:43:12;;;;;;;;;;;;;;;-144.99;88.90;52568.34;5086974;28;20102;-73
2023/01/08 07:45:38;;;;;;;;;;;;;;;-144.99;89.27;52545.94;5094973;28;19992;-74
2023/01/08 07:48:05;;;;;;;;;;;;;;;-144.99;90.41;52545.94;5096239;28;19959;-75
2023/01/08 07:50:33;;;;;;;;;;;;;;;-144.99;91.13;52527.59;5095260;28;19957;-73
2023/01/08 07:52:59;;;;;;;;;;;;;;;-144.99;91.57;52574.47;5097238;28;19941;-73
2023/01/08 07:55:26;;;;;;;;;;;;;;;-144.99;91.86;52550.00;5095898;28;19925;-73
2023/01/08 07:57:52;;;;;;;;;;;;;;;-144.99;93.24;52562.25;5096295;28;19988;-74
2023/01/08 08:00:19;;;;;;;;;;;;;;;-144.99;92.93;52537.78;5097170;28;19972;-73
2023/01/08 08:02:46;;;;;;;;;;;;;;;-144.99;92.70;52556.13;5096843;28;19926;-73
2023/01/08 08:05:12;;;;;;;;;;;;;;;-144.99;92.61;52513.31;5095935;28;19933;-75
2023/01/08 08:07:40;;;;;;;;;;;;;;;-144.99;92.69;52509.25;5091175;28;19926;-72
2023/01/08 08:10:07;;;;;;;;;;;;;;;-144.99;93.89;52519.44;5088346;28;19967;-71
2023/01/08 08:12:33;;;;;;;;;;;;;;;-144.99;94.34;52550.00;5072609;28;20261;-72
2023/01/08 08:14:59;;;;;;;;;;;;;;;-144.99;94.74;52509.25;5070331;28;19970;-74
2023/01/08 08:17:26;;;;;;;;;;;;;;;-144.99;94.86;52545.94;5071508;28;19985;-73
2023/01/08 08:19:53;;;;;;;;;;;;;;;-144.99;95.95;52554.09;5071131;28;19944;-71
2023/01/08 08:22:19;;;;;;;;;;;;;;;-144.99;98.41;52550.00;5071878;28;19988;-71
2023/01/08 08:24:47;;;;;;;;;;;;;;;-144.99;98.32;52550.00;5084657;28;20190;-72
2023/01/08 08:27:14;;;;;;;;;;;;;;;-144.99;98.21;52521.47;5070846;28;20034;-71
2023/01/08 08:29:40;;;;;;;;;;;;;;;-144.99;98.10;52574.47;5064062;28;20037;-72
2023/01/08 08:32:07;;;;;;;;;;;;;;;-144.99;98.38;52525.56;5072451;28;20430;-72
2023/01/08 08:34:33;;;;;;;;;;;;;;;-144.99;97.68;52570.38;5069839;28;20474;-72
2023/01/08 08:36:59;;;;;;;;;;;;;;;-144.99;97.79;52550.00;5068961;28;20031;-72
2023/01/08 08:39:26;;;;;;;;;;;;;;;-144.99;97.54;52554.09;5069566;28;20293;-72
2023/01/08 08:41:54;;;;;;;;;;;;;;;-144.99;97.38;52566.31;5074497;28;20394;-72
2023/01/08 08:44:20;;;;;;;;;;;;;;;-144.99;97.53;52521.47;5069944;28;19983;-71
2023/01/08 08:46:47;;;;;;;;;;;;;;;-144.99;98.21;52509.25;5069355;28;20182;-71
2023/01/08 08:49:13;;;;;;;;;;;;;;;-144.99;99.91;52541.84;5069624;28;19974;-72
2023/01/08 08:51:39;;;;;;;;;;;;;;;-144.99;100.00;52550.00;5068954;28;20004;-73
2023/01/08 08:54:06;;;;;;;;;;;;;;;-144.99;100.00;52521.47;5070050;28;19944;-72
2023/01/08 08:56:34;;;;;;;;;;;;;;;-144.99;100.00;52521.47;5067937;28;20315;-73
2023/01/08 08:59:02;;;;;;;;;;;;;;;-144.99;100.00;52554.09;5063076;28;19970;-72
2023/01/08 09:01:29;;;;;;;;;;;;;;;-144.99;100.00;52537.78;5068978;28;19956;-70
2023/01/08 09:03:55;;;;;;;;;;;;;;;-144.99;100.00;52554.09;5062936;28;19980;-73
2023/01/08 09:06:23;;;;;;;;;;;;;;;-144.99;100.00;52525.56;5068998;28;20331;-73
2023/01/08 09:08:50;;;;;;;;;;;;;;;-144.99;100.00;52541.84;5065450;28;19980;-76
2023/01/08 09:11:16;;;;;;;;;;;;;;;-144.99;100.00;52531.66;5064856;28;19966;-73
2023/01/08 09:13:43;;;;;;;;;;;;;;;-144.99;100.00;52545.94;5070407;28;19999;-74
2023/01/08 09:16:11;;;;;;;;;;;;;;;-144.99;100.00;52509.25;5095571;22;20408;-77
2023/01/08 09:18:37;;;;;;;;;;;;;;;-144.99;100.00;52541.84;5021197;28;20005;-77
2023/01/08 09:21:04;;;;;;;;;;;;;;;-144.99;100.00;52517.41;5033656;28;19985;-77
2023/01/08 09:23:31;;;;;;;;;;;;;;;-144.99;100.00;52537.78;5033266;28;20052;-77
2023/01/08 09:25:58;;;;;;;;;;;;;;;-144.99;100.00;52531.66;5032819;28;19994;-78
2023/01/08 09:28:25;;;;;;;;;;;;;;;-144.99;100.00;52533.69;5038766;28;19943;-77
2023/01/08 09:30:51;;;;;;;;;;;;;;;-144.99;100.00;52521.47;5033900;28;19940;-75
2023/01/08 09:33:19;;;;;;;;;;;;;;;-144.99;100.00;52554.09;5026327;28;20044;-78
2023/01/08 09:35:46;;;;;;;;;;;;;;;-144.99;100.00;52509.25;5022458;28;19960;-77
2023/01/08 09:38:12;;;;;;;;;;;;;;;-144.99;100.00;52550.00;5031384;28;20385;-75
2023/01/08 09:40:41;;;;;;;;;;;;;;;-144.99;100.00;52515.34;5031623;28;19941;-77
2023/01/08 09:43:10;;;;;;;;;;;;;;;-144.99;100.00;52529.63;5026943;28;20011;-77
2023/01/08 09:45:39;;;;;;;;;;;;;;;-144.99;100.00;52529.63;5021589;28;20009;-78
2023/01/08 09:48:07;;;;;;;;;;;;;;;-144.99;100.00;52533.69;5012382;28;19993;-75
2023/01/08 09:50:36;;;;;;;;;;;;;;;-144.99;100.00;52543.91;5022980;28;20480;-79
2023/01/08 09:53:03;;;;;;;;;;;;;;;-144.99;100.00;52537.78;5033086;28;19937;-77
2023/01/08 09:55:31;;;;;;;;;;;;;;;-144.99;100.00;52505.16;5032262;28;19965;-78
2023/01/08 09:57:59;;;;;;;;;;;;;;;-144.99;99.46;52492.94;5032183;28;20003;-80
2023/01/08 10:00:28;;;;;;;;;;;;;;;-144.99;99.27;52539.81;5029861;28;20495;-81
2023/01/08 10:02:54;;;;;;;;;;;;;;;-144.99;98.85;52509.25;5022452;28;20023;-79
2023/01/08 10:05:21;;;;;;;;;;;;;;;-144.99;98.23;52541.84;5012783;28;19993;-78
2023/01/08 10:07:49;;;;;;;;;;;;;;;-144.99;98.65;52513.31;5013323;28;20447;-77
2023/01/08 10:10:17;;;;;;;;;;;;;;;-144.99;98.27;52525.56;5025426;28;20029;-77
2023/01/08 10:12:44;;;;;;;;;;;;;;;-144.99;97.60;52513.31;5022205;28;19949;-76
2023/01/08 10:15:13;;;;;;;;;;;;;;;-144.99;97.63;52529.63;5027993;28;20000;-77
2023/01/08 10:17:41;;;;;;;;;;;;;;;-144.99;97.04;52511.28;5012932;28;20166;-77
2023/01/08 10:20:11;;;;;;;;;;;;;;;-144.99;97.36;52525.56;5020702;28;19962;-79
2023/01/08 10:22:37;;;;;;;;;;;;;;;-144.99;97.15;52492.94;5032144;28;19996;-75
2023/01/08 10:25:08;;;;;;;;;;;;;;;-144.99;96.86;52484.78;5032491;28;19964;-77
2023/01/08 10:27:44;;;;;;;;;;;;;;;-144.99;97.17;52531.66;5029260;28;19992;-76
2023/01/08 10:30:15;;;;;;;;;;;;;;;-144.99;96.93;52486.81;5017518;28;20054;-78
2023/01/08 10:32:46;;;;;;;;;;;;;;;-144.99;96.41;52492.94;5031709;28;20398;-76
2023/01/08 10:35:16;;;;;;;;;;;;;;;-144.99;95.75;52488.84;5031673;28;19968;-80
2023/01/08 10:37:43;;;;;;;;;;;;;;;-144.99;95.83;52478.66;5039484;28;19979;-81
2023/01/08 10:40:22;;;;;;;;;;;;;;;-144.99;95.79;52529.63;5051133;28;19978;-88
2023/01/08 10:42:49;;;;;;;;;;;;;;;-144.99;94.18;52529.63;5026217;28;19945;-81
2023/01/08 10:45:18;;;;;;;;;;;;;;;-144.99;93.96;52525.56;5027016;28;20055;-77
2023/01/08 10:47:47;;;;;;;;;;;;;;;-144.99;94.41;52529.63;5020840;28;19949;-77
2023/01/08 10:50:19;;;;;;;;;;;;;;;-144.99;94.81;52517.41;5029497;28;20002;-75
2023/01/08 10:52:51;;;;;;;;;;;;;;;-144.99;94.78;52545.94;5021991;28;20047;-78
2023/01/08 10:55:22;;;;;;;;;;;;;;;-144.99;94.74;52519.44;5026070;28;20049;-78
2023/01/08 10:57:53;;;;;;;;;;;;;;;-144.99;94.78;52529.63;5026791;28;19977;-78
2023/01/08 11:00:24;;;;;;;;;;;;;;;-144.99;93.83;52503.13;5017704;28;19943;-80
2023/01/08 11:02:50;;;;;;;;;;;;;;;-144.99;93.60;52509.25;5028081;28;20180;-77
2023/01/08 11:05:17;;;;;;;;;;;;;;;-144.99;91.63;52429.75;5030119;28;19962;-77
2023/01/08 11:07:47;;;;;;;;;;;;;;;-144.99;89.06;52395.09;5030180;28;19954;-81
2023/01/08 11:10:21;;;;;;;;;;;;;;;-144.99;84.44;52476.63;5029985;28;20255;-76
2023/01/08 11:12:54;;;;;;;;;;;;;;;-144.99;85.20;52466.44;5026327;28;19976;-76
2023/01/08 11:15:38;;;;;;;;;;;;;;;-144.99;87.22;52505.16;5036662;28;19950;-90
2023/01/08 11:18:13;;;;;;;;;;;;;;;-144.99;87.78;52545.94;5039011;28;20407;-82
2023/01/08 11:20:40;;;;;;;;;;;;;;;-144.99;88.32;52480.72;5031369;28;19947;-78
2023/01/08 11:23:14;;;;;;;;;;;;;;;-144.99;88.07;52515.34;5031041;28;20483;-78
2023/01/08 11:25:42;;;;;;;;;;;;;;;-144.99;87.92;52525.56;5031432;28;20376;-79
2023/01/08 11:28:14;;;;;;;;;;;;;;;-144.99;88.86;52382.88;5028570;28;20465;-77
2023/01/08 11:30:44;;;;;;;;;;;;;;;-144.99;82.97;52319.69;5023150;28;20003;-81
2023/01/08 11:33:14;;;;;;;;;;;;;;;-144.99;75.30;52325.81;5031484;28;19948;-80
2023/01/08 11:35:42;;;;;;;;;;;;;;;-144.99;69.59;52264.66;5019840;28;19970;-81
2023/01/08 11:38:12;;;;;;;;;;;;;;;-144.99;64.62;52250.38;5015196;28;20011;-82
2023/01/08 11:40:42;;;;;;;;;;;;;;;-144.99;60.10;52240.19;5031692;28;20013;-78
2023/01/08 11:43:17;;;;;;;;;;;;;;;-144.99;57.84;52195.34;5027347;28;19993;-79
2023/01/08 11:45:51;;;;;;;;;;;;;;;-144.99;55.86;52203.50;5026047;28;20005;-79
2023/01/08 11:48:35;;;;;;;;;;;;;;;-144.99;55.53;52211.66;5031802;28;19948;-81
2023/01/08 11:51:19;;;;;;;;;;;;;;;-144.99;56.00;52258.53;5037040;28;19988;-89
2023/01/08 11:53:47;;;;;;;;;;;;;;;-144.99;55.58;52260.56;5044597;28;19958;-80
2023/01/08 11:56:20;;;;;;;;;;;;;;;-144.99;54.64;52219.81;5032967;28;19964;-79
2023/01/08 11:58:55;;;;;;;;;;;;;;;-144.99;53.73;52236.13;5034894;28;19991;-80
2023/01/08 12:01:28;;;;;;;;;;;;;;;-144.99;53.22;52358.41;5032312;28;20372;-82
2023/01/08 12:04:04;;;;;;;;;;;;;;;-144.99;53.70;52211.66;5027326;28;19942;-78
2023/01/08 12:06:34;;;;;;;;;;;;;;;-144.99;53.79;52240.19;5030779;28;19956;-80
2023/01/08 12:09:08;;;;;;;;;;;;;;;-144.99;52.64;52250.38;5030183;28;19967;-82
2023/01/08 12:11:38;;;;;;;;;;;;;;;-144.99;51.64;52207.59;5029696;28;19999;-85
2023/01/08 12:14:18;;;;;;;;;;;;;;;-144.99;50.04;52256.50;5052563;28;19939;-88
2023/01/08 12:16:50;;;;;;;;;;;;;;;-144.99;50.80;52232.03;5042089;28;19981;-87
2023/01/08 12:19:20;;;;;;;;;;;;;;;-144.99;50.56;52197.41;5055668;28;20024;-82
2023/01/08 12:21:53;;;;;;;;;;;;;;;-144.99;50.56;52215.75;5041118;28;19973;-86
2023/01/08 12:24:27;;;;;;;;;;;;;;;-144.99;49.39;52232.03;5033890;28;19952;-82
2023/01/08 12:26:58;;;;;;;;;;;;;;;-144.99;48.89;52195.34;5038427;28;19958;-83
2023/01/08 12:29:37;;;;;;;;;;;;;;;-144.99;48.18;52240.19;5032196;28;19968;-83